Time;durP1;ratioP1;P1;durP2;ratioP2;P2;SDS_P1;SDS_P2;PMS_P1;PMS_P2;Temp;Humidity;BMP_temperature;BMP_pressure;BME280_temperature;BME280_humidity;BME280_pressure;Samples;Min_cycle;Max_cycle;Signal;HPM_P1;HPM_P2
2024/01/08 00:00:21;;;;;;;5.88;3.88;;;-2.20;99.90;;;;;;5091669;28;19931;-63
2024/01/08 00:02:47;;;;;;;4.82;3.88;;;-2.20;99.90;;;;;;5092170;28;20055;-62
2024/01/08 00:05:14;;;;;;;7.70;3.78;;;-2.20;99.90;;;;;;5093467;28;20079;-62
2024/01/08 00:07:40;;;;;;;;;;;-2.30;99.90;;;;;;5092803;28;20056;-63
2024/01/08 00:10:06;;;;;;;5.70;4.10;;;-2.30;99.90;;;;;;5092800;28;19924;-62
2024/01/08 00:12:33;;;;;;;7.60;4.28;;;-2.30;99.90;;;;;;5092719;28;20059;-61
2024/01/08 00:14:59;;;;;;;;;;;-2.30;99.90;;;;;;5093854;28;20055;-62
2024/01/08 00:17:25;;;;;;;6.93;4.32;;;-2.30;99.90;;;;;;5092107;28;19924;-62
2024/01/08 00:19:51;;;;;;;;;;;-2.30;99.90;;;;;;5092966;28;20047;-62
2024/01/08 00:22:18;;;;;;;6.05;3.92;;;-2.30;99.90;;;;;;5093192;28;19923;-61
2024/01/08 00:24:44;;;;;;;7.90;4.07;;;-2.40;99.90;;;;;;5091381;28;20120;-61
2024/01/08 00:27:10;;;;;;;;;;;-2.40;99.90;;;;;;5093121;28;20048;-62
2024/01/08 00:29:37;;;;;;;5.88;3.70;;;-2.40;99.90;;;;;;5091488;28;19935;-62
2024/01/08 00:32:05;;;;;;;6.82;5.13;;;-2.40;99.90;;;;;;5092060;28;20657;-62
2024/01/08 00:34:31;;;;;;;6.57;4.00;;;-2.30;99.90;;;;;;5091455;28;20052;-62
2024/01/08 00:36:57;;;;;;;;;;;-2.40;99.90;;;;;;5093400;28;20364;-63
2024/01/08 00:39:25;;;;;;;6.05;4.20;;;-2.40;99.90;;;;;;5092508;28;19924;-62
2024/01/08 00:41:52;;;;;;;9.25;4.68;;;-2.40;99.90;;;;;;5092717;28;20384;-62
2024/01/08 00:44:18;;;;;;;;;;;-2.40;99.90;;;;;;5091853;28;20044;-63
2024/01/08 00:46:44;;;;;;;5.40;4.07;;;-2.40;99.90;;;;;;5091375;28;20014;-61
2024/01/08 00:49:10;;;;;;;;;;;-2.40;99.90;;;;;;5092866;28;20044;-62
2024/01/08 00:51:37;;;;;;;5.20;3.60;;;-2.40;99.90;;;;;;5091708;28;20294;-61
2024/01/08 00:54:03;;;;;;;;;;;-2.50;99.90;;;;;;5093062;28;20044;-62
2024/01/08 00:56:30;;;;;;;6.82;4.03;;;-2.40;99.90;;;;;;5092764;28;19928;-61
2024/01/08 00:58:56;;;;;;;7.63;4.47;;;-2.40;99.90;;;;;;5092535;28;20063;-62
2024/01/08 01:01:22;;;;;;;;;;;-2.40;99.90;;;;;;5093288;28;20055;-62
2024/01/08 01:03:49;;;;;;;7.28;4.28;;;-2.30;99.90;;;;;;5124756;27;19920;-63
2024/01/08 01:06:21;;;;;;;5.78;3.90;;;-2.20;99.90;;;;;;5091641;28;20764;-62
2024/01/08 01:08:47;;;;;;;5.80;4.47;;;-2.40;99.90;;;;;;5092266;28;20043;-62
2024/01/08 01:11:17;;;;;;;7.47;4.50;;;-2.40;99.90;;;;;;5091175;28;20044;-62
2024/01/08 01:13:43;;;;;;;5.30;3.97;;;-2.40;99.90;;;;;;5091117;28;20067;-62
2024/01/08 01:16:09;;;;;;;;;;;-2.50;99.90;;;;;;5092900;28;20054;-61
2024/01/08 01:18:36;;;;;;;6.68;4.00;;;-2.50;99.90;;;;;;5092353;28;19939;-62
2024/01/08 01:21:02;;;;;;;;;;;-2.50;99.90;;;;;;5092600;28;20460;-61
2024/01/08 01:23:28;;;;;;;6.45;3.78;;;-2.50;99.90;;;;;;5090856;28;19920;-62
2024/01/08 01:25:55;;;;;;;6.97;4.47;;;-2.60;99.90;;;;;;5092028;28;20060;-62
2024/01/08 01:28:22;;;;;;;6.72;4.32;;;-2.60;99.90;;;;;;5090353;28;20051;-61
2024/01/08 01:30:48;;;;;;;;;;;-2.60;99.90;;;;;;5090895;28;20060;-62
2024/01/08 01:33:14;;;;;;;6.35;4.68;;;-2.60;99.90;;;;;;5091408;28;20310;-63
2024/01/08 01:35:40;;;;;;;;;;;-2.60;99.90;;;;;;5057429;28;20055;-63
2024/01/08 01:38:07;;;;;;;6.95;4.60;;;-2.60;99.90;;;;;;5124928;27;20343;-62
2024/01/08 01:40:33;;;;;;;6.00;4.78;;;-2.60;99.90;;;;;;5090625;28;20056;-62
2024/01/08 01:42:59;;;;;;;;;;;-2.70;99.90;;;;;;5092236;28;20048;-62
2024/01/08 01:45:26;;;;;;;7.55;4.05;;;-2.70;99.90;;;;;;5092183;28;19931;-62
2024/01/08 01:47:55;;;;;;;7.55;5.00;;;-2.70;99.90;;;;;;5090219;28;20491;-61
2024/01/08 01:50:23;;;;;;;6.05;4.88;;;-2.70;99.90;;;;;;5090427;28;20036;-63
2024/01/08 01:52:51;;;;;;;5.88;4.78;;;-2.70;99.90;;;;;;5091421;28;20055;-61
2024/01/08 01:55:17;;;;;;;6.57;4.43;;;-2.70;99.90;;;;;;5091617;28;20351;-62
2024/01/08 01:57:45;;;;;;;6.53;5.70;;;-2.60;99.90;;;;;;5090852;28;20376;-61
2024/01/08 02:00:14;;;;;;;6.85;5.40;;;-2.60;99.90;;;;;;5090401;28;20047;-63
2024/01/08 02:02:41;;;;;;;7.80;4.88;;;-2.60;99.90;;;;;;5091610;28;20058;-62
2024/01/08 02:05:10;;;;;;;6.90;4.75;;;-2.50;99.90;;;;;;5091467;28;20393;-62
2024/01/08 02:07:38;;;;;;;7.90;4.65;;;-2.50;99.90;;;;;;5090119;28;20174;-62
2024/01/08 02:10:04;;;;;;;7.35;4.45;;;-2.50;99.90;;;;;;5090054;28;20054;-63
2024/01/08 02:12:31;;;;;;;6.85;4.65;;;-2.40;99.90;;;;;;5091421;28;20056;-62
2024/01/08 02:14:57;;;;;;;8.18;4.53;;;-2.40;99.90;;;;;;5090134;28;20052;-62
2024/01/08 02:17:23;;;;;;;;;;;-2.40;99.90;;;;;;5090611;28;20043;-62
2024/01/08 02:19:50;;;;;;;8.80;5.50;;;-2.30;99.90;;;;;;5090219;28;19931;-63
2024/01/08 02:22:16;;;;;;;;;;;-2.30;99.90;;;;;;5091215;28;20376;-63
2024/01/08 02:24:42;;;;;;;7.78;4.40;;;-2.20;99.90;;;;;;5091015;28;19936;-62
2024/01/08 02:27:09;;;;;;;;;;;-2.20;99.90;;;;;;5090250;28;20048;-62
2024/01/08 02:29:35;;;;;;;8.90;5.43;;;-2.10;99.90;;;;;;5090280;28;20290;-62
2024/01/08 02:32:01;;;;;;;7.65;4.88;;;-2.10;99.90;;;;;;5089840;28;20048;-62
2024/01/08 02:34:28;;;;;;;;;;;-2.10;99.90;;;;;;5090320;28;20383;-63
2024/01/08 02:36:54;;;;;;;6.88;4.93;;;-2.10;99.90;;;;;;5090882;28;19927;-63
2024/01/08 02:39:20;;;;;;;;;;;-2.00;99.90;;;;;;5090107;28;20067;-63
2024/01/08 02:41:47;;;;;;;6.68;5.43;;;-2.00;99.90;;;;;;5090909;28;19920;-61
2024/01/08 02:44:13;;;;;;;;;;;-2.00;99.90;;;;;;5090137;28;20051;-62
2024/01/08 02:46:39;;;;;;;7.43;4.68;;;-2.00;99.90;;;;;;5089909;28;20478;-62
2024/01/08 02:49:05;;;;;;;;;;;-2.00;99.90;;;;;;5091266;28;20036;-61
2024/01/08 02:51:31;;;;;;;8.43;5.10;;;-1.90;99.90;;;;;;5089749;28;20332;-61
2024/01/08 02:53:58;;;;;;;;;;;-1.90;99.90;;;;;;5090674;28;20052;-62
2024/01/08 02:56:25;;;;;;;7.57;4.75;;;-1.90;99.90;;;;;;5090323;28;19944;-63
2024/01/08 02:58:51;;;;;;;8.80;6.22;;;-1.90;99.90;;;;;;5088880;28;20449;-61
2024/01/08 03:01:18;;;;;;;7.82;5.43;;;-1.80;99.90;;;;;;5089191;28;20075;-62
2024/01/08 03:03:44;;;;;;;;;;;-1.80;99.90;;;;;;5089441;28;20448;-61
2024/01/08 03:06:10;;;;;;;6.80;4.97;;;-1.80;99.90;;;;;;5090503;28;19942;-63
2024/01/08 03:08:36;;;;;;;;;;;-1.80;99.90;;;;;;5090675;28;20068;-62
2024/01/08 03:11:03;;;;;;;8.57;6.03;;;-1.70;99.90;;;;;;5090179;28;19930;-62
2024/01/08 03:13:29;;;;;;;6.85;5.15;;;-1.70;99.90;;;;;;5090197;28;20040;-61
2024/01/08 03:15:55;;;;;;;;;;;-1.70;99.90;;;;;;5090451;28;20491;-62
2024/01/08 03:18:21;;;;;;;8.25;6.70;;;-1.60;99.90;;;;;;5088645;28;19920;-62
2024/01/08 03:20:48;;;;;;;;;;;-1.60;99.90;;;;;;5090719;28;20388;-62
2024/01/08 03:23:14;;;;;;;10.02;5.35;;;-1.60;99.90;;;;;;5088648;28;19942;-61
2024/01/08 03:25:40;;;;;;;;;;;-1.60;99.90;;;;;;5090653;28;20052;-62
2024/01/08 03:28:06;;;;;;;11.35;6.47;;;-1.50;99.90;;;;;;5123086;28;19936;-62
2024/01/08 03:30:33;;;;;;;;;;;-1.50;99.90;;;;;;5089117;28;20044;-62
2024/01/08 03:33:00;;;;;;;7.55;5.85;;;-1.40;99.90;;;;;;5088402;28;20378;-62
2024/01/08 03:35:26;;;;;;;9.82;6.95;;;-1.40;99.90;;;;;;5089256;28;20063;-62
2024/01/08 03:37:52;;;;;;;9.05;6.78;;;-1.40;99.90;;;;;;5088521;28;20063;-63
2024/01/08 03:40:19;;;;;;;10.13;5.38;;;-1.40;99.90;;;;;;5089765;28;20475;-62
2024/01/08 03:42:45;;;;;;;;;;;-1.30;99.90;;;;;;5088822;28;20048;-62
2024/01/08 03:45:11;;;;;;;10.70;6.22;;;-1.30;99.90;;;;;;5089816;28;20259;-61
2024/01/08 03:47:39;;;;;;;;;;;-1.40;99.90;;;;;;5090325;28;20052;-62
2024/01/08 03:50:07;;;;;;;9.02;5.70;;;-1.40;99.90;;;;;;5089252;28;19924;-62
2024/01/08 03:52:33;;;;;;;8.95;5.32;;;-1.40;99.90;;;;;;5089811;28;20043;-62
2024/01/08 03:54:59;;;;;;;7.93;5.95;;;-1.40;99.90;;;;;;5091591;28;20502;-63
2024/01/08 03:57:25;;;;;;;;;;;-1.40;99.90;;;;;;5073799;28;20052;-62
2024/01/08 03:59:52;;;;;;;9.50;6.20;;;-1.40;99.90;;;;;;5085446;28;20239;-63
2024/01/08 04:02:18;;;;;;;8.57;5.72;;;-1.30;99.90;;;;;;5093504;28;20418;-61
2024/01/08 04:04:44;;;;;;;;;;;-1.30;99.90;;;;;;5094560;28;20052;-62
2024/01/08 04:07:11;;;;;;;9.02;5.57;;;-1.30;99.90;;;;;;5092907;28;20343;-62
2024/01/08 04:09:40;;;;;;;9.48;6.30;;;-1.30;99.90;;;;;;5092020;28;20410;-63
2024/01/08 04:12:07;;;;;;;10.18;7.10;;;-1.20;99.90;;;;;;5093311;28;20431;-63
2024/01/08 04:14:33;;;;;;;7.85;5.53;;;-1.30;99.90;;;;;;5093155;28;20384;-62
2024/01/08 04:16:59;;;;;;;;;;;-1.30;99.90;;;;;;5092309;28;20040;-62
2024/01/08 04:19:25;;;;;;;8.75;5.43;;;-1.20;99.90;;;;;;5091993;28;20294;-61
2024/01/08 04:21:52;;;;;;;;;;;-1.20;99.90;;;;;;5093710;28;20048;-63
2024/01/08 04:24:18;;;;;;;9.68;6.28;;;-1.20;99.90;;;;;;5092942;28;20043;-62
2024/01/08 04:26:44;;;;;;;;;;;-1.20;99.90;;;;;;5092612;28;20463;-62
2024/01/08 04:29:11;;;;;;;10.82;6.32;;;-1.10;99.90;;;;;;5091466;28;19920;-63
2024/01/08 04:31:37;;;;;;;10.45;6.20;;;-1.20;99.90;;;;;;5093132;28;20058;-62
2024/01/08 04:34:03;;;;;;;8.65;5.63;;;-1.10;99.90;;;;;;5092505;28;20335;-62
2024/01/08 04:36:29;;;;;;;;;;;-1.10;99.90;;;;;;5093205;28;20044;-61
2024/01/08 04:38:56;;;;;;;8.63;5.57;;;-1.10;99.90;;;;;;5091684;28;19943;-61
2024/01/08 04:41:22;;;;;;;;;;;-1.10;99.90;;;;;;5093563;28;20048;-61
2024/01/08 04:43:48;;;;;;;9.35;5.90;;;-1.10;99.90;;;;;;5092564;28;19930;-61
2024/01/08 04:46:17;;;;;;;8.27;6.38;;;-1.10;99.90;;;;;;5091529;28;20056;-62
2024/01/08 04:48:43;;;;;;;8.05;5.72;;;-1.00;99.90;;;;;;5092556;28;20135;-63
2024/01/08 04:51:23;;;;;;;7.28;5.47;;;-1.10;99.90;;;;;;5092282;28;20468;-61
2024/01/08 04:53:50;;;;;;;7.25;5.40;;;-1.00;99.90;;;;;;5091845;28;20044;-62
2024/01/08 04:56:24;;;;;;;8.02;5.57;;;-1.00;99.90;;;;;;5091520;28;20051;-62
2024/01/08 04:58:51;;;;;;;8.38;5.78;;;-1.10;99.90;;;;;;5091139;28;20097;-62
2024/01/08 05:01:18;;;;;;;8.05;5.13;;;-1.10;99.90;;;;;;5092249;28;20047;-61
2024/01/08 05:03:45;;;;;;;7.82;5.68;;;-1.00;99.90;;;;;;5091930;28;20048;-62
2024/01/08 05:06:16;;;;;;;7.22;5.13;;;-1.00;99.90;;;;;;5091890;28;20062;-61
2024/01/08 05:08:43;;;;;;;7.28;4.90;;;-1.10;99.90;;;;;;5092094;28;20063;-63
2024/01/08 05:11:10;;;;;;;;;;;-1.00;99.90;;;;;;5092448;28;20040;-62
2024/01/08 05:13:38;;;;;;;6.88;4.82;;;-1.00;99.90;;;;;;5091590;28;19927;-61
2024/01/08 05:16:06;;;;;;;7.35;5.80;;;-1.00;99.90;;;;;;5091732;28;20298;-63
2024/01/08 05:18:32;;;;;;;7.55;5.45;;;-1.00;99.90;;;;;;5091092;28;20058;-60
2024/01/08 05:20:59;;;;;;;6.47;4.80;;;-1.00;99.90;;;;;;5092035;28;20052;-62
2024/01/08 05:23:25;;;;;;;;;;;-1.00;99.90;;;;;;5091990;28;20067;-63
2024/01/08 05:25:51;;;;;;;6.40;4.55;;;-1.00;99.90;;;;;;5092135;28;19938;-63
2024/01/08 05:28:18;;;;;;;7.22;5.05;;;-1.10;99.90;;;;;;5091939;28;20079;-63
2024/01/08 05:30:44;;;;;;;;;;;-1.10;99.90;;;;;;5090965;28;20048;-62
2024/01/08 05:33:10;;;;;;;6.10;4.40;;;-1.00;99.90;;;;;;5091488;28;20391;-61
2024/01/08 05:35:37;;;;;;;;;;;-1.10;99.90;;;;;;5091089;28;20311;-62
2024/01/08 05:38:04;;;;;;;7.32;4.97;;;-1.10;99.90;;;;;;5091059;28;20263;-62
2024/01/08 05:40:31;;;;;;;7.38;4.70;;;-1.10;99.90;;;;;;5090337;28;20062;-63
2024/01/08 05:42:57;;;;;;;;;;;-1.10;99.90;;;;;;5091535;28;20059;-62
2024/01/08 05:45:23;;;;;;;7.20;5.07;;;-1.10;99.90;;;;;;5091790;28;19924;-62
2024/01/08 05:47:50;;;;;;;7.13;4.70;;;-1.10;99.90;;;;;;5090369;28;20058;-62
2024/01/08 05:50:17;;;;;;;8.07;4.75;;;-1.20;99.90;;;;;;5090554;28;20060;-63
2024/01/08 05:52:45;;;;;;;7.68;4.68;;;-1.20;99.90;;;;;;5090903;28;20523;-63
2024/01/08 05:55:15;;;;;;;7.50;5.22;;;-1.20;99.90;;;;;;5091519;28;20063;-61
2024/01/08 05:57:41;;;;;;;6.82;4.55;;;-1.20;99.90;;;;;;5090225;28;20144;-62
2024/01/08 06:00:07;;;;;;;;;;;-1.30;99.90;;;;;;5073313;28;20060;-61
2024/01/08 06:02:33;;;;;;;5.80;5.00;;;-1.30;99.90;;;;;;5104540;28;20377;-63
2024/01/08 06:05:00;;;;;;;;;;;-1.30;99.90;;;;;;5094525;28;20452;-61
2024/01/08 06:07:26;;;;;;;6.22;4.40;;;-1.30;99.90;;;;;;5090576;28;19924;-63
2024/01/08 06:09:52;;;;;;;;;;;-1.40;99.90;;;;;;5090388;28;20472;-61
2024/01/08 06:12:19;;;;;;;9.07;4.25;;;-1.30;99.90;;;;;;5089703;28;19932;-63
2024/01/08 06:14:45;;;;;;;;;;;-1.30;99.90;;;;;;5090929;28;20059;-62
2024/01/08 06:17:11;;;;;;;6.88;4.95;;;-1.40;99.90;;;;;;5089529;28;19919;-63
2024/01/08 06:19:37;;;;;;;;;;;-1.40;99.90;;;;;;5091646;28;20104;-63
2024/01/08 06:22:04;;;;;;;8.13;4.65;;;-1.40;99.90;;;;;;5090139;28;19949;-62
2024/01/08 06:24:30;;;;;;;6.38;4.07;;;-1.40;99.90;;;;;;5090126;28;20475;-61
2024/01/08 06:26:57;;;;;;;;;;;-1.30;99.90;;;;;;5091413;28;20058;-64
2024/01/08 06:29:23;;;;;;;6.40;4.63;;;-1.40;99.90;;;;;;5089612;28;19919;-63
2024/01/08 06:31:49;;;;;;;;;;;-1.30;99.90;;;;;;5091708;28;20050;-62
2024/01/08 06:34:15;;;;;;;6.45;4.70;;;-1.30;99.90;;;;;;5088963;28;19932;-62
2024/01/08 06:36:42;;;;;;;;;;;-1.40;99.90;;;;;;5089299;28;20459;-62
2024/01/08 06:39:11;;;;;;;6.82;4.10;;;-1.40;99.90;;;;;;5089713;28;19935;-63
2024/01/08 06:41:38;;;;;;;5.95;4.60;;;-1.40;99.90;;;;;;5088517;28;20040;-63
2024/01/08 06:44:05;;;;;;;6.57;4.40;;;-1.30;99.90;;;;;;5103743;28;20047;-62
2024/01/08 06:46:31;;;;;;;5.90;5.07;;;-1.40;99.90;;;;;;5094314;28;20047;-63
2024/01/08 06:49:00;;;;;;;;;;;-1.30;99.90;;;;;;5089079;28;20048;-61
2024/01/08 06:51:26;;;;;;;6.97;5.05;;;-1.30;99.90;;;;;;5087130;28;19919;-64
2024/01/08 06:53:52;;;;;;;7.90;5.10;;;-1.30;99.90;;;;;;5112132;28;20476;-61
2024/01/08 06:56:19;;;;;;;7.90;4.80;;;-1.40;99.90;;;;;;5088748;28;20410;-63
2024/01/08 06:58:45;;;;;;;7.50;4.97;;;-1.30;99.90;;;;;;5087851;28;20483;-62
2024/01/08 07:01:14;;;;;;;;;;;-1.30;99.90;;;;;;5088807;28;20055;-63
2024/01/08 07:03:40;;;;;;;8.88;4.88;;;-1.30;99.90;;;;;;5088434;28;19974;-63
2024/01/08 07:06:06;;;;;;;;;;;-1.30;99.90;;;;;;5090098;28;20292;-63
2024/01/08 07:08:32;;;;;;;5.72;4.60;;;-1.30;99.90;;;;;;5087675;28;19924;-64
2024/01/08 07:10:59;;;;;;;;;;;-1.40;99.90;;;;;;5088162;28;20047;-63
2024/01/08 07:13:25;;;;;;;11.30;4.57;;;-1.40;99.90;;;;;;5113423;28;20290;-62
2024/01/08 07:15:52;;;;;;;;;;;-1.40;99.90;;;;;;5088709;28;20047;-64
2024/01/08 07:18:19;;;;;;;7.07;5.10;;;-1.40;99.90;;;;;;5087822;28;20350;-64
2024/01/08 07:20:45;;;;;;;7.22;5.10;;;-1.30;99.90;;;;;;5087953;28;20056;-63
2024/01/08 07:23:14;;;;;;;9.15;4.47;;;-1.30;99.90;;;;;;5088142;28;20048;-62
2024/01/08 07:25:44;;;;;;;8.13;5.00;;;-1.40;99.90;;;;;;5071073;28;20471;-63
2024/01/08 07:28:11;;;;;;;5.95;4.75;;;-1.40;99.90;;;;;;5102031;28;20067;-63
2024/01/08 07:30:38;;;;;;;8.82;4.88;;;-1.40;99.90;;;;;;5083238;28;20109;-62
2024/01/08 07:33:05;;;;;;;7.07;4.63;;;-1.30;99.90;;;;;;5094300;28;20132;-63
2024/01/08 07:35:31;;;;;;;6.97;5.43;;;-1.30;99.90;;;;;;5077074;28;20048;-62
2024/01/08 07:37:57;;;;;;;;;;;-1.30;99.90;;;;;;5094579;28;20131;-64
2024/01/08 07:40:27;;;;;;;8.00;4.80;;;-1.40;99.90;;;;;;5091686;28;19939;-62
2024/01/08 07:42:57;;;;;;;8.30;5.00;;;-1.30;99.90;;;;;;5094894;28;20059;-62
2024/01/08 07:45:25;;;;;;;8.30;4.95;;;-1.30;99.90;;;;;;5093821;28;20043;-63
2024/01/08 07:47:52;;;;;;;6.82;4.65;;;-1.40;99.90;;;;;;5092448;28;20044;-62
2024/01/08 07:50:19;;;;;;;7.75;4.50;;;-1.30;99.90;;;;;;5092605;28;20051;-63
2024/01/08 07:52:46;;;;;;;8.18;5.32;;;-1.30;99.90;;;;;;5094264;28;20131;-63
2024/01/08 07:55:12;;;;;;;7.55;4.80;;;-1.30;99.90;;;;;;5093326;28;20056;-64
2024/01/08 07:57:38;;;;;;;;;;;-1.30;99.90;;;;;;5077019;28;20063;-63
2024/01/08 08:00:06;;;;;;;7.60;5.05;;;-1.20;99.90;;;;;;5092284;28;19920;-63
2024/01/08 08:02:33;;;;;;;5.97;4.30;;;-1.20;99.90;;;;;;5092715;28;20059;-63
2024/01/08 08:05:00;;;;;;;7.10;4.75;;;-1.20;99.90;;;;;;5095391;28;20388;-63
2024/01/08 08:07:28;;;;;;;9.57;5.05;;;-1.20;99.90;;;;;;5093003;28;20055;-64
2024/01/08 08:09:54;;;;;;;7.35;5.00;;;-1.10;99.90;;;;;;5092369;28;20044;-64
2024/01/08 08:12:22;;;;;;;9.10;4.30;;;-1.20;99.90;;;;;;5093883;28;20044;-63
2024/01/08 08:14:48;;;;;;;9.07;5.13;;;-1.10;99.90;;;;;;5094011;28;20048;-62
2024/01/08 08:17:15;;;;;;;7.07;4.85;;;-1.10;99.90;;;;;;5093691;28;20455;-63
2024/01/08 08:19:42;;;;;;;6.85;4.43;;;-1.10;99.90;;;;;;5092148;28;20059;-64
2024/01/08 08:22:12;;;;;;;6.47;4.38;;;-1.10;99.90;;;;;;5093725;28;20177;-63
2024/01/08 08:24:42;;;;;;;7.05;5.40;;;-1.00;99.90;;;;;;5092799;28;20337;-62
2024/01/08 08:27:09;;;;;;;7.97;4.78;;;-1.00;99.90;;;;;;5093171;28;20513;-62
2024/01/08 08:29:43;;;;;;;7.05;5.40;;;-1.00;99.90;;;;;;5091961;28;20063;-63
2024/01/08 08:32:10;;;;;;;6.05;4.70;;;-1.00;99.90;;;;;;5092871;28;20048;-63
2024/01/08 08:34:36;;;;;;;;;;;-1.00;99.90;;;;;;5092855;28;20059;-62
2024/01/08 08:37:03;;;;;;;7.80;4.35;;;-0.90;99.90;;;;;;5092244;28;19934;-63
2024/01/08 08:39:29;;;;;;;5.60;4.78;;;-0.90;99.90;;;;;;5092995;28;20040;-63
2024/01/08 08:41:55;;;;;;;;;;;-0.90;99.90;;;;;;5092346;28;20048;-63
2024/01/08 08:44:22;;;;;;;6.22;4.13;;;-0.90;99.90;;;;;;5092495;28;19920;-63
2024/01/08 08:46:49;;;;;;;;;;;-0.90;99.90;;;;;;5111599;28;20078;-63
2024/01/08 08:49:22;;;;;;;7.50;4.47;;;-0.90;99.90;;;;;;5097374;28;19939;-62
2024/01/08 08:51:49;;;;;;;6.95;4.32;;;-0.80;99.90;;;;;;5090848;28;20043;-63
2024/01/08 08:54:16;;;;;;;6.28;4.55;;;-0.80;99.90;;;;;;5092299;28;20491;-63
2024/01/08 08:56:42;;;;;;;;;;;-0.70;99.90;;;;;;5092953;28;20044;-63
2024/01/08 08:59:09;;;;;;;4.80;3.80;;;-0.70;99.90;;;;;;5092127;28;20382;-63
2024/01/08 09:01:35;;;;;;;5.15;3.92;;;-0.70;99.90;;;;;;5093160;28;20055;-63
2024/01/08 09:04:03;;;;;;;8.55;5.00;;;-0.70;99.90;;;;;;5091653;28;20480;-62
2024/01/08 09:06:34;;;;;;;6.70;4.00;;;-0.70;99.90;;;;;;5091853;28;20058;-63
2024/01/08 09:09:01;;;;;;;7.15;4.30;;;-0.70;99.90;;;;;;5089479;28;20056;-62
2024/01/08 09:11:28;;;;;;;5.35;3.90;;;-0.60;99.90;;;;;;5091168;28;20063;-64
2024/01/08 09:13:55;;;;;;;6.82;3.85;;;-0.70;99.90;;;;;;5074839;28;20040;-61
2024/01/08 09:16:26;;;;;;;5.70;3.83;;;-0.60;99.90;;;;;;5092762;28;20076;-63
2024/01/08 09:18:52;;;;;;;5.70;3.90;;;-0.50;99.90;;;;;;5091359;28;20051;-62
2024/01/08 09:21:19;;;;;;;8.43;4.55;;;-0.60;99.90;;;;;;5091670;28;20055;-62
2024/01/08 09:23:45;;;;;;;6.93;3.83;;;-0.50;99.90;;;;;;5092537;28;20060;-62
2024/01/08 09:26:12;;;;;;;;;;;-0.50;99.90;;;;;;5091657;28;20048;-62
2024/01/08 09:28:39;;;;;;;5.25;4.38;;;-0.50;99.90;;;;;;5092315;28;19923;-62
2024/01/08 09:31:05;;;;;;;;;;;-0.50;99.90;;;;;;5092318;28;20406;-64
2024/01/08 09:33:31;;;;;;;5.50;4.03;;;-0.40;99.90;;;;;;5091369;28;19977;-62
2024/01/08 09:35:59;;;;;;;;;;;-0.50;99.90;;;;;;5092686;28;20066;-63
2024/01/08 09:38:25;;;;;;;5.13;4.03;;;-0.40;99.90;;;;;;5092120;28;19920;-62
2024/01/08 09:40:51;;;;;;;;;;;-0.40;99.90;;;;;;5092481;28;20062;-62
2024/01/08 09:43:19;;;;;;;7.10;4.75;;;-0.40;99.90;;;;;;5092187;28;19935;-63
2024/01/08 09:46:07;;;;;;;5.78;4.93;;;-0.40;99.90;;;;;;5092013;28;20113;-63
2024/01/08 09:48:36;;;;;;;5.90;3.95;;;-0.30;99.90;;;;;;5090915;28;20368;-64
2024/01/08 09:51:03;;;;;;;5.45;4.20;;;-0.30;99.90;;;;;;5091335;28;20075;-63
2024/01/08 09:53:31;;;;;;;7.68;4.28;;;-0.30;99.90;;;;;;5091307;28;20047;-64
2024/01/08 09:55:58;;;;;;;5.30;3.80;;;-0.30;99.90;;;;;;5091566;28;20456;-62
2024/01/08 09:58:25;;;;;;;6.95;4.68;;;-0.40;99.90;;;;;;5091723;28;20074;-61
2024/01/08 10:00:54;;;;;;;8.30;5.00;;;-0.40;99.90;;;;;;5091697;28;20043;-61
2024/01/08 10:03:21;;;;;;;5.80;3.65;;;-0.30;99.90;;;;;;5090044;28;20494;-62
2024/01/08 10:05:48;;;;;;;5.25;4.38;;;-0.30;99.90;;;;;;5091847;28;20154;-64
2024/01/08 10:08:17;;;;;;;5.20;3.80;;;-0.30;99.90;;;;;;5090453;28;20073;-62
2024/01/08 10:10:44;;;;;;;6.43;4.75;;;-0.30;99.90;;;;;;5091607;28;20063;-62
2024/01/08 10:13:11;;;;;;;;;;;-0.30;99.90;;;;;;5091243;28;20057;-63
2024/01/08 10:15:38;;;;;;;7.00;5.45;;;-0.30;99.90;;;;;;5091865;28;19924;-63
2024/01/08 10:18:08;;;;;;;;;;;-0.30;99.90;;;;;;5090702;28;20066;-62
2024/01/08 10:20:34;;;;;;;;;;;-0.30;99.90;;;;;;5091178;28;19920;-62
2024/01/08 10:23:08;;;;;;;7.78;3.83;;;-0.30;99.90;;;;;;5095691;28;20268;-62
2024/01/08 10:25:37;;;;;;;5.95;3.80;;;-0.30;99.90;;;;;;5103626;28;20461;-63
2024/01/08 10:28:13;;;;;;;7.03;4.13;;;-0.30;99.90;;;;;;5069937;28;20460;-63
2024/01/08 10:30:40;;;;;;;6.72;4.05;;;-0.20;99.90;;;;;;5068909;28;20048;-64
2024/01/08 10:33:07;;;;;;;8.45;4.88;;;-0.20;99.90;;;;;;5090283;28;20479;-64
2024/01/08 10:35:35;;;;;;;5.55;4.20;;;-0.20;99.90;;;;;;5091281;28;20051;-61
2024/01/08 10:38:02;;;;;;;7.93;4.78;;;-0.20;99.90;;;;;;5090874;28;20059;-63
2024/01/08 10:40:28;;;;;;;4.97;4.05;;;-0.10;99.90;;;;;;5090766;28;20071;-64
2024/01/08 10:42:55;;;;;;;6.03;4.97;;;-0.10;99.90;;;;;;5089924;28;20052;-63
2024/01/08 10:45:22;;;;;;;8.55;4.47;;;-0.10;99.90;;;;;;5091125;28;20055;-63
2024/01/08 10:47:58;;;;;;;5.32;3.70;;;-0.10;99.90;;;;;;5090881;28;20093;-64
2024/01/08 10:50:26;;;;;;;5.25;3.70;;;-0.10;99.90;;;;;;5090954;28;20044;-62
2024/01/08 10:52:56;;;;;;;8.10;4.05;;;-0.10;99.90;;;;;;5090992;28;20044;-63
2024/01/08 10:55:23;;;;;;;6.03;3.88;;;0.00;99.90;;;;;;5089766;28;20671;-63
2024/01/08 10:58:24;;;;;;;6.55;4.80;;;0.10;99.90;;;;;;5090069;28;20048;-63
2024/01/08 11:00:52;;;;;;;6.95;4.18;;;0.00;99.90;;;;;;5067332;28;20052;-62
2024/01/08 11:03:20;;;;;;;5.47;4.80;;;0.00;99.90;;;;;;5072234;28;20364;-62
2024/01/08 11:05:51;;;;;;;6.55;3.88;;;0.00;99.90;;;;;;5074214;28;20067;-63
2024/01/08 11:08:20;;;;;;;6.60;4.88;;;-0.10;99.90;;;;;;5074056;28;20041;-62
2024/01/08 11:10:47;;;;;;;4.75;3.65;;;0.10;99.90;;;;;;5075031;28;20427;-63
2024/01/08 11:13:16;;;;;;;6.40;5.22;;;0.10;99.90;;;;;;5075552;28;20352;-63
2024/01/08 11:15:46;;;;;;;5.32;3.67;;;0.10;99.90;;;;;;5075274;28;20195;-62
2024/01/08 11:18:26;;;;;;;5.40;4.90;;;0.10;99.90;;;;;;5074547;28;20048;-62
2024/01/08 11:20:55;;;;;;;4.80;3.63;;;0.10;99.90;;;;;;5074374;28;20475;-62
2024/01/08 11:23:40;;;;;;;6.88;3.92;;;0.10;99.90;;;;;;5079421;28;20693;-62
2024/01/08 11:26:21;;;;;;;4.75;4.03;;;0.10;99.90;;;;;;5075200;28;20046;-62
2024/01/08 11:29:08;;;;;;;6.28;4.15;;;0.10;99.90;;;;;;5093599;28;20051;-63
2024/01/08 11:31:44;;;;;;;5.15;4.30;;;0.20;99.90;;;;;;5053852;28;20353;-62
2024/01/08 11:34:39;;;;;;;4.78;3.58;;;0.20;99.90;;;;;;5087440;28;20052;-61
2024/01/08 11:37:37;;;;;;;6.72;4.18;;;0.10;99.90;;;;;;5069804;28;20723;-61
2024/01/08 11:40:17;;;;;;;6.70;4.18;;;0.10;99.90;;;;;;5064487;28;20360;-63
2024/01/08 11:42:45;;;;;;;5.95;3.83;;;0.10;99.90;;;;;;5074005;28;20048;-63
2024/01/08 11:45:12;;;;;;;5.85;4.07;;;0.20;99.90;;;;;;5094071;28;20079;-62
2024/01/08 11:47:39;;;;;;;6.68;4.20;;;0.30;99.90;;;;;;5093798;28;20051;-62
2024/01/08 11:50:07;;;;;;;7.00;4.32;;;0.40;99.90;;;;;;5074780;28;20044;-64
2024/01/08 11:52:36;;;;;;;5.28;3.88;;;0.50;99.90;;;;;;5054121;28;20060;-63
2024/01/08 11:55:04;;;;;;;5.00;3.70;;;0.50;99.90;;;;;;5105305;28;20051;-61
2024/01/08 11:57:31;;;;;;;5.00;3.67;;;0.60;99.90;;;;;;5074188;28;20380;-62
2024/01/08 11:59:57;;;;;;;5.90;3.95;;;0.60;99.90;;;;;;5073223;28;20356;-63
2024/01/08 12:02:27;;;;;;;5.93;3.85;;;0.50;99.90;;;;;;5073560;28;20357;-62
2024/01/08 12:04:55;;;;;;;5.95;3.97;;;0.50;99.90;;;;;;5073229;28;20055;-62
2024/01/08 12:07:23;;;;;;;6.00;4.28;;;0.60;99.90;;;;;;5074473;28;20063;-63
2024/01/08 12:09:49;;;;;;;6.20;4.72;;;0.70;99.90;;;;;;5073761;28;20368;-61
2024/01/08 12:12:17;;;;;;;6.43;5.13;;;0.80;99.90;;;;;;5074413;28;20044;-62
2024/01/08 12:14:47;;;;;;;5.28;4.25;;;0.90;99.90;;;;;;5072533;28;20421;-63
2024/01/08 12:17:15;;;;;;;5.65;3.20;;;1.00;99.90;;;;;;5073387;28;20140;-62
2024/01/08 12:19:55;;;;;;;5.45;4.00;;;0.90;99.90;;;;;;5072518;28;20072;-62
2024/01/08 12:22:24;;;;;;;6.60;3.78;;;0.90;99.90;;;;;;5074025;28;20059;-62
2024/01/08 12:24:55;;;;;;;5.35;3.95;;;0.80;99.90;;;;;;5073094;28;20462;-60
2024/01/08 12:27:25;;;;;;;6.38;4.95;;;0.70;99.90;;;;;;5072934;28;20057;-61
2024/01/08 12:29:55;;;;;;;5.22;4.10;;;0.70;99.90;;;;;;5073938;28;20049;-62
2024/01/08 12:32:23;;;;;;;6.45;5.15;;;0.60;99.90;;;;;;5072586;28;20055;-62
2024/01/08 12:34:50;;;;;;;6.90;4.50;;;0.50;99.90;;;;;;5072751;28;20052;-61
2024/01/08 12:37:19;;;;;;;7.55;4.50;;;0.50;99.90;;;;;;5072024;28;20052;-62
2024/01/08 12:39:46;;;;;;;5.25;4.75;;;0.40;99.90;;;;;;5080032;28;20043;-61
2024/01/08 12:42:15;;;;;;;6.13;3.88;;;0.40;99.90;;;;;;5036415;28;20056;-61
2024/01/08 12:44:44;;;;;;;6.20;4.22;;;0.30;99.90;;;;;;5053831;28;20052;-61
2024/01/08 12:47:10;;;;;;;7.07;4.32;;;0.40;99.90;;;;;;5059950;28;20056;-62
2024/01/08 12:49:37;;;;;;;5.47;4.43;;;0.30;99.90;;;;;;5071170;28;20056;-60
2024/01/08 12:52:05;;;;;;;5.13;3.42;;;0.10;99.90;;;;;;5073008;28;20040;-60
2024/01/08 12:54:36;;;;;;;8.15;4.13;;;0.20;99.90;;;;;;5072883;28;20468;-61
2024/01/08 12:57:03;;;;;;;7.28;4.90;;;0.10;99.90;;;;;;5073260;28;20052;-61
2024/01/08 12:59:33;;;;;;;5.55;3.70;;;0.20;99.90;;;;;;5071124;28;20044;-61
2024/01/08 13:02:00;;;;;;;6.63;5.10;;;0.20;99.90;;;;;;5071616;28;20056;-62
2024/01/08 13:04:27;;;;;;;5.18;4.25;;;0.10;99.90;;;;;;5071869;28;20048;-62
2024/01/08 13:06:53;;;;;;;6.32;4.28;;;0.10;99.90;;;;;;5071790;28;20052;-63